Time;durP1;ratioP1;P1;durP2;ratioP2;P2;SDS_P1;SDS_P2;PMS_P1;PMS_P2;Temp;Humidity;BMP_temperature;BMP_pressure;BME280_temperature;BME280_humidity;BME280_pressure;Samples;Min_cycle;Max_cycle;Signal;HPM_P1;HPM_P2
2021/12/03 00:00:09;;;;;;;;;;;0.90;1.00;;;;;;5034698;28;20339;-83
2021/12/03 00:02:35;;;;;;;;;;;0.90;1.00;;;;;;5036230;28;19924;-82
2021/12/03 00:05:00;;;;;;;;;;;0.90;1.00;;;;;;5037504;28;19909;-82
2021/12/03 00:07:26;;;;;;;;;;;0.90;1.00;;;;;;5036102;28;19916;-82
2021/12/03 00:09:51;;;;;;;;;;;0.90;1.00;;;;;;5037508;28;20008;-82
2021/12/03 00:12:17;;;;;;;;;;;0.90;1.00;;;;;;5038101;28;20289;-82
2021/12/03 00:14:42;;;;;;;;;;;0.90;1.00;;;;;;5037676;28;20262;-82
2021/12/03 00:17:08;;;;;;;;;;;0.90;1.00;;;;;;5032288;28;19918;-83
2021/12/03 00:19:33;;;;;;;;;;;0.90;1.00;;;;;;5038585;28;20042;-83
2021/12/03 00:21:59;;;;;;;;;;;1.00;1.00;;;;;;5037363;28;19921;-82
2021/12/03 00:24:24;;;;;;;;;;;1.00;1.00;;;;;;5019004;28;19978;-82
2021/12/03 00:26:50;;;;;;;;;;;1.00;1.00;;;;;;5037856;28;19936;-83
2021/12/03 00:29:15;;;;;;;;;;;1.10;1.00;;;;;;5040975;28;19913;-83
2021/12/03 00:31:41;;;;;;;;;;;1.10;1.00;;;;;;5040882;28;20383;-84
2021/12/03 00:34:07;;;;;;;;;;;1.10;1.00;;;;;;5016937;28;19913;-84
2021/12/03 00:36:32;;;;;;;;;;;1.10;1.00;;;;;;5038900;28;20332;-83
2021/12/03 00:38:59;;;;;;;;;;;1.10;1.00;;;;;;5039387;28;19913;-83
2021/12/03 00:41:28;;;;;;;;;;;1.10;1.00;;;;;;5039205;28;19970;-83
2021/12/03 00:43:53;;;;;;;;;;;1.10;1.00;;;;;;5019600;28;19925;-83
2021/12/03 00:46:20;;;;;;;;;;;1.10;1.00;;;;;;5038695;28;19909;-82
2021/12/03 00:48:46;;;;;;;;;;;1.10;1.00;;;;;;5019817;28;19913;-83
2021/12/03 00:51:12;;;;;;;;;;;1.10;1.00;;;;;;5014345;28;19920;-84
2021/12/03 00:53:38;;;;;;;;;;;1.10;1.00;;;;;;5037281;28;20297;-83
2021/12/03 00:56:04;;;;;;;;;;;1.10;1.00;;;;;;5040376;28;19982;-84
2021/12/03 00:58:30;;;;;;;;;;;1.20;1.00;;;;;;5038836;28;19913;-83
2021/12/03 01:00:55;;;;;;;;;;;1.20;1.00;;;;;;5041158;28;19912;-83
2021/12/03 01:03:21;;;;;;;;;;;1.30;1.00;;;;;;5039492;28;20274;-83
2021/12/03 01:05:46;;;;;;;;;;;1.30;1.00;;;;;;5039700;28;19920;-84
2021/12/03 01:08:12;;;;;;;;;;;1.30;1.00;;;;;;5017973;28;19999;-80
2021/12/03 01:10:37;;;;;;;;;;;1.30;1.00;;;;;;5039312;28;19920;-83
2021/12/03 01:13:03;;;;;;;;;;;1.40;1.00;;;;;;5037709;28;19924;-83
2021/12/03 01:15:30;;;;;;;;;;;1.40;1.00;;;;;;5035984;28;19917;-81
2021/12/03 01:17:57;;;;;;;;;;;1.40;1.00;;;;;;5037160;28;19913;-82
2021/12/03 01:20:22;;;;;;;;;;;1.40;1.00;;;;;;5036178;28;20285;-82
2021/12/03 01:22:48;;;;;;;;;;;1.50;1.00;;;;;;5037293;28;19913;-83
2021/12/03 01:25:14;;;;;;;;;;;1.50;1.00;;;;;;5037426;28;19917;-82
2021/12/03 01:27:40;;;;;;;;;;;1.60;1.00;;;;;;5030197;28;20002;-83
2021/12/03 01:30:08;;;;;;;;;;;1.70;1.00;;;;;;5037116;28;19987;-82
2021/12/03 01:32:33;;;;;;;;;;;1.70;1.00;;;;;;5016679;28;20004;-82
2021/12/03 01:34:59;;;;;;;;;;;1.70;1.00;;;;;;5036578;28;20337;-82
2021/12/03 01:37:24;;;;;;;;;;;1.80;1.00;;;;;;5034919;28;20377;-83
2021/12/03 01:39:50;;;;;;;;;;;1.80;1.00;;;;;;5037224;28;19915;-82
2021/12/03 01:42:16;;;;;;;;;;;1.80;1.00;;;;;;5035647;28;19917;-82
2021/12/03 01:44:41;;;;;;;;;;;1.90;1.00;;;;;;5032820;28;19913;-82
2021/12/03 01:47:07;;;;;;;;;;;1.90;1.00;;;;;;5034924;28;19948;-82
2021/12/03 01:49:32;;;;;;;;;;;1.90;1.00;;;;;;5035902;28;19983;-82
2021/12/03 01:51:58;;;;;;;;;;;1.90;1.00;;;;;;5035774;28;19913;-81
2021/12/03 01:54:23;;;;;;;;;;;1.90;1.00;;;;;;5036435;28;20369;-82
2021/12/03 01:56:49;;;;;;;;;;;2.00;1.00;;;;;;5036253;28;20074;-82
2021/12/03 01:59:14;;;;;;;;;;;2.00;1.00;;;;;;5036158;28;19924;-83
2021/12/03 02:01:39;;;;;;;;;;;2.00;1.00;;;;;;5016470;28;19921;-83
2021/12/03 02:04:05;;;;;;;;;;;2.00;1.00;;;;;;5037825;28;19913;-83
2021/12/03 02:06:31;;;;;;;;;;;2.10;1.00;;;;;;5016414;28;20404;-83
2021/12/03 02:08:57;;;;;;;;;;;2.10;1.00;;;;;;5021363;28;19960;-82
2021/12/03 02:11:23;;;;;;;;;;;2.10;1.00;;;;;;5033606;28;19913;-83
2021/12/03 02:13:49;;;;;;;;;;;2.20;1.00;;;;;;5036896;28;19924;-82
2021/12/03 02:16:16;;;;;;;;;;;2.20;1.00;;;;;;5037877;28;19913;-83
2021/12/03 02:18:41;;;;;;;;;;;2.20;1.00;;;;;;5037048;28;19983;-83
2021/12/03 02:21:08;;;;;;;;;;;2.20;1.00;;;;;;5038823;28;20004;-82
2021/12/03 02:23:34;;;;;;;;;;;2.20;1.00;;;;;;5037486;28;19998;-82
2021/12/03 02:25:59;;;;;;;;;;;2.20;1.00;;;;;;5037315;28;19917;-83
2021/12/03 02:28:26;;;;;;;;;;;2.30;1.00;;;;;;5033930;28;20021;-82
2021/12/03 02:30:53;;;;;;;;;;;2.30;1.00;;;;;;5033575;28;19914;-82
2021/12/03 02:33:19;;;;;;;;;;;2.30;1.00;;;;;;5029083;28;19972;-83
2021/12/03 02:35:45;;;;;;;;;;;2.30;1.00;;;;;;5018624;28;19956;-82
2021/12/03 02:38:12;;;;;;;;;;;2.40;1.00;;;;;;5020070;28;19916;-83
2021/12/03 02:40:37;;;;;;;;;;;2.40;1.00;;;;;;5037301;28;19913;-83
2021/12/03 02:43:03;;;;;;;;;;;2.40;1.00;;;;;;5019427;28;19913;-83
2021/12/03 02:45:28;;;;;;;;;;;2.40;1.00;;;;;;5031887;28;19928;-82
2021/12/03 02:47:56;;;;;;;;;;;2.40;1.00;;;;;;5031857;28;19917;-82
2021/12/03 02:50:21;;;;;;;;;;;2.40;1.00;;;;;;5034947;28;19944;-82
2021/12/03 02:52:48;;;;;;;;;;;2.40;1.00;;;;;;5032011;28;20002;-82
2021/12/03 02:55:14;;;;;;;;;;;2.40;1.00;;;;;;5036175;28;19913;-83
2021/12/03 02:57:39;;;;;;;;;;;2.40;1.00;;;;;;5036588;28;19913;-82
2021/12/03 03:00:09;;;;;;;;;;;2.30;1.00;;;;;;5037852;28;19913;-83
2021/12/03 03:02:35;;;;;;;;;;;2.30;1.00;;;;;;5015233;28;19917;-82
2021/12/03 03:05:00;;;;;;;;;;;2.40;1.00;;;;;;5037472;28;19913;-83
2021/12/03 03:07:26;;;;;;;;;;;2.40;1.00;;;;;;5036115;28;19913;-83
2021/12/03 03:09:51;;;;;;;;;;;2.40;1.00;;;;;;5034300;28;19944;-82
2021/12/03 03:12:17;;;;;;;;;;;2.40;1.00;;;;;;5033295;28;20297;-82
2021/12/03 03:14:44;;;;;;;;;;;2.50;1.00;;;;;;5034179;28;19988;-82
2021/12/03 03:17:09;;;;;;;;;;;2.50;1.00;;;;;;5016933;28;19913;-81
2021/12/03 03:19:35;;;;;;;;;;;2.50;1.00;;;;;;5033576;28;19913;-82
2021/12/03 03:22:01;;;;;;;;;;;2.60;1.00;;;;;;5029576;28;19917;-82
2021/12/03 03:24:26;;;;;;;;;;;2.60;1.00;;;;;;5033983;28;20262;-82
2021/12/03 03:26:52;;;;;;;;;;;2.60;1.00;;;;;;5033419;28;19913;-82
2021/12/03 03:29:18;;;;;;;;;;;2.60;1.00;;;;;;5035916;28;19917;-83
2021/12/03 03:31:43;;;;;;;;;;;2.70;1.00;;;;;;5036629;28;19919;-82
2021/12/03 03:34:09;;;;;;;;;;;2.70;1.00;;;;;;5036185;28;19913;-83
2021/12/03 03:36:36;;;;;;;;;;;2.70;1.00;;;;;;5012974;28;19913;-82
2021/12/03 03:39:03;;;;;;;;;;;2.70;1.00;;;;;;5036652;28;20284;-82
2021/12/03 03:41:28;;;;;;;;;;;2.70;1.00;;;;;;5036672;28;19913;-82
2021/12/03 03:43:54;;;;;;;;;;;2.70;1.00;;;;;;5035921;28;19917;-82
2021/12/03 03:46:19;;;;;;;;;;;2.70;1.00;;;;;;5037920;28;19909;-83
2021/12/03 03:48:45;;;;;;;;;;;2.80;1.00;;;;;;5035622;28;19928;-83
2021/12/03 03:51:11;;;;;;;;;;;2.80;1.00;;;;;;5028980;28;19945;-82
2021/12/03 03:53:38;;;;;;;;;;;2.80;1.00;;;;;;5035449;28;20008;-82
2021/12/03 03:56:04;;;;;;;;;;;2.80;1.00;;;;;;5029815;28;19969;-83
2021/12/03 03:58:30;;;;;;;;;;;2.80;1.00;;;;;;5035396;28;19936;-83
2021/12/03 04:00:55;;;;;;;;;;;2.80;1.00;;;;;;5033743;28;19913;-83
2021/12/03 04:03:21;;;;;;;;;;;2.80;1.00;;;;;;5017270;28;20296;-83
2021/12/03 04:05:46;;;;;;;;;;;2.80;1.00;;;;;;5036201;28;19920;-82
2021/12/03 04:08:12;;;;;;;;;;;2.80;1.00;;;;;;5036797;28;19921;-82
2021/12/03 04:10:37;;;;;;;;;;;2.80;1.00;;;;;;5033342;28;20377;-82
2021/12/03 04:13:03;;;;;;;;;;;2.90;1.00;;;;;;5027708;28;19989;-82
2021/12/03 04:15:28;;;;;;;;;;;2.80;1.00;;;;;;5034137;28;19924;-82
2021/12/03 04:17:54;;;;;;;;;;;2.90;1.00;;;;;;5014882;28;19962;-82
2021/12/03 04:20:21;;;;;;;;;;;2.90;1.00;;;;;;5034510;28;19920;-82
2021/12/03 04:22:46;;;;;;;;;;;2.90;1.00;;;;;;5033884;28;19940;-82
2021/12/03 04:25:14;;;;;;;;;;;2.90;1.00;;;;;;5033890;28;20011;-82
2021/12/03 04:27:40;;;;;;;;;;;2.90;1.00;;;;;;5034488;28;19919;-82
2021/12/03 04:30:07;;;;;;;;;;;2.90;1.00;;;;;;5030101;28;20003;-82
2021/12/03 04:32:32;;;;;;;;;;;2.90;1.00;;;;;;5029764;28;19967;-82
2021/12/03 04:34:58;;;;;;;;;;;2.90;1.00;;;;;;5016502;28;19917;-82
2021/12/03 04:37:23;;;;;;;;;;;2.90;1.00;;;;;;5032588;28;19955;-82
2021/12/03 04:39:51;;;;;;;;;;;2.90;1.00;;;;;;5034399;28;19914;-82
2021/12/03 04:42:17;;;;;;;;;;;3.00;1.00;;;;;;5035968;28;19925;-82
2021/12/03 04:44:42;;;;;;;;;;;3.00;1.00;;;;;;5037736;28;20453;-82
2021/12/03 04:47:08;;;;;;;;;;;3.00;1.00;;;;;;5033104;28;19925;-81
2021/12/03 04:49:34;;;;;;;;;;;3.00;1.00;;;;;;5037288;28;19935;-82
2021/12/03 04:51:59;;;;;;;;;;;3.00;1.00;;;;;;5035592;28;19917;-82
2021/12/03 04:54:26;;;;;;;;;;;3.00;1.00;;;;;;5035848;28;19920;-82
2021/12/03 04:56:52;;;;;;;;;;;3.00;1.00;;;;;;5038251;28;19913;-81
2021/12/03 04:59:17;;;;;;;;;;;3.00;1.00;;;;;;5020102;28;20145;-83
2021/12/03 05:01:43;;;;;;;;;;;3.00;1.00;;;;;;5039750;28;19913;-83
2021/12/03 05:04:09;;;;;;;;;;;3.00;1.00;;;;;;5035718;28;19914;-82
2021/12/03 05:09:18;;;;;;;;;;;3.00;1.00;;;;;;5039847;28;20004;-82
2021/12/03 05:11:44;;;;;;;;;;;3.10;1.00;;;;;;5038726;28;19945;-82
2021/12/03 05:14:09;;;;;;;;;;;3.10;1.00;;;;;;5038294;28;20011;-82
2021/12/03 05:16:35;;;;;;;;;;;3.10;1.00;;;;;;5039336;28;19914;-82
2021/12/03 05:19:00;;;;;;;;;;;3.20;1.00;;;;;;5039785;28;19913;-83
2021/12/03 05:21:26;;;;;;;;;;;3.20;1.00;;;;;;5035528;28;19921;-81
2021/12/03 05:23:51;;;;;;;;;;;3.20;1.00;;;;;;5010285;28;19939;-82
2021/12/03 05:26:17;;;;;;;;;;;3.20;1.00;;;;;;5039051;28;20407;-82
2021/12/03 05:28:42;;;;;;;;;;;3.20;1.00;;;;;;5038487;28;19909;-83
2021/12/03 05:31:08;;;;;;;;;;;3.20;1.00;;;;;;5039058;28;19924;-83
2021/12/03 05:33:33;;;;;;;;;;;3.20;1.00;;;;;;5038646;28;19917;-83
2021/12/03 05:35:59;;;;;;;;;;;3.20;1.00;;;;;;5039976;28;20292;-83
2021/12/03 05:38:24;;;;;;;;;;;3.20;1.00;;;;;;5038597;28;19920;-83
2021/12/03 05:40:49;;;;;;;;;;;3.20;1.00;;;;;;5034479;28;20308;-82
2021/12/03 05:43:15;;;;;;;;;;;3.20;1.00;;;;;;5036514;28;19925;-82
2021/12/03 05:45:41;;;;;;;;;;;3.20;1.00;;;;;;5036204;28;20388;-83
2021/12/03 05:48:06;;;;;;;;;;;3.20;1.00;;;;;;5036708;28;19959;-82
2021/12/03 05:50:32;;;;;;;;;;;3.20;1.00;;;;;;5038136;28;20344;-83
2021/12/03 05:52:58;;;;;;;;;;;3.20;1.00;;;;;;5035606;28;20297;-82
2021/12/03 05:55:24;;;;;;;;;;;3.30;1.00;;;;;;5030798;28;19963;-82
2021/12/03 05:57:50;;;;;;;;;;;3.30;1.00;;;;;;5013637;28;19920;-82
2021/12/03 06:00:18;;;;;;;;;;;3.30;1.00;;;;;;5036344;28;19935;-82
2021/12/03 06:02:43;;;;;;;;;;;3.30;1.00;;;;;;5018560;28;19919;-82
2021/12/03 06:05:09;;;;;;;;;;;3.30;1.00;;;;;;5036298;28;19913;-82
2021/12/03 06:07:35;;;;;;;;;;;3.30;1.00;;;;;;5019352;28;19945;-81
2021/12/03 06:10:00;;;;;;;;;;;3.30;1.00;;;;;;5036006;28;19955;-82
2021/12/03 06:12:26;;;;;;;;;;;3.30;1.00;;;;;;5036715;28;19913;-82
2021/12/03 06:14:51;;;;;;;;;;;3.30;1.00;;;;;;5029319;28;19975;-82
2021/12/03 06:17:17;;;;;;;;;;;3.30;1.00;;;;;;5019081;28;19909;-82
2021/12/03 06:19:43;;;;;;;;;;;3.30;1.00;;;;;;5035097;28;20392;-82
2021/12/03 06:22:10;;;;;;;;;;;3.30;1.00;;;;;;5038980;28;19949;-82
2021/12/03 06:24:36;;;;;;;;;;;3.30;1.00;;;;;;5037861;28;19956;-82
2021/12/03 06:27:02;;;;;;;;;;;3.30;1.00;;;;;;5037189;28;19980;-82
2021/12/03 06:29:27;;;;;;;;;;;3.40;1.00;;;;;;5036015;28;19970;-83
2021/12/03 06:31:53;;;;;;;;;;;3.30;1.00;;;;;;5037257;28;20305;-81
2021/12/03 06:34:18;;;;;;;;;;;3.30;1.00;;;;;;5037564;28;20004;-82
2021/12/03 06:36:43;;;;;;;;;;;3.30;1.00;;;;;;5037047;28;19920;-83
2021/12/03 06:39:09;;;;;;;;;;;3.30;1.00;;;;;;5038321;28;20011;-83
2021/12/03 06:41:34;;;;;;;;;;;3.20;1.00;;;;;;5037094;28;19913;-83
2021/12/03 06:44:00;;;;;;;;;;;3.20;1.00;;;;;;5037834;28;20311;-82
2021/12/03 06:46:25;;;;;;;;;;;3.10;1.00;;;;;;5037841;28;19913;-81
2021/12/03 06:48:52;;;;;;;;;;;3.10;1.00;;;;;;5034431;28;19913;-82
2021/12/03 06:51:17;;;;;;;;;;;3.20;1.00;;;;;;5012670;28;19913;-81
2021/12/03 06:53:53;;;;;;;;;;;3.30;1.00;;;;;;5036057;28;20443;-81
2021/12/03 06:56:21;;;;;;;;;;;3.40;1.00;;;;;;5032967;28;19913;-81
2021/12/03 06:58:47;;;;;;;;;;;3.40;1.00;;;;;;5020887;28;19913;-81
2021/12/03 07:01:13;;;;;;;;;;;3.40;1.00;;;;;;5040123;28;19921;-81
2021/12/03 07:03:38;;;;;;;;;;;3.40;1.00;;;;;;5039300;28;20370;-80
2021/12/03 07:06:04;;;;;;;;;;;3.40;1.00;;;;;;5035780;28;19948;-80
2021/12/03 07:08:29;;;;;;;;;;;3.40;1.00;;;;;;5040898;28;20002;-80
2021/12/03 07:10:54;;;;;;;;;;;3.40;1.00;;;;;;5037568;28;20381;-81
2021/12/03 07:13:20;;;;;;;;;;;3.40;1.00;;;;;;5022106;28;19913;-84
2021/12/03 07:15:45;;;;;;;;;;;3.40;1.00;;;;;;5025332;28;19921;-83
2021/12/03 07:18:11;;;;;;;;;;;3.40;1.00;;;;;;5044616;28;19948;-82
2021/12/03 07:20:36;;;;;;;;;;;3.40;1.00;;;;;;5043278;28;19937;-83
2021/12/03 07:23:02;;;;;;;;;;;3.40;99.90;;;;;;5018384;28;19928;-83
2021/12/03 07:25:29;;;;;;;;;;;3.40;99.90;;;;;;5042611;28;21579;-83
2021/12/03 07:27:55;;;;;;;;;;;3.40;99.90;;;;;;5043781;28;19916;-83
2021/12/03 07:30:21;;;;;;;;;;;3.40;99.90;;;;;;5042704;28;19920;-84
2021/12/03 07:32:47;;;;;;;;;;;3.40;99.90;;;;;;5024965;28;19916;-83
2021/12/03 07:35:12;;;;;;;;;;;3.40;99.90;;;;;;5041408;28;19921;-83
2021/12/03 07:37:38;;;;;;;;;;;3.40;99.90;;;;;;5022923;28;19920;-83
2021/12/03 07:40:05;;;;;;;;;;;3.40;99.90;;;;;;5039434;28;20403;-83
2021/12/03 07:42:31;;;;;;;;;;;3.40;99.90;;;;;;5041419;28;19921;-83
2021/12/03 07:44:56;;;;;;;;;;;3.40;99.90;;;;;;5039609;28;19917;-83
2021/12/03 07:47:22;;;;;;;;;;;3.40;99.90;;;;;;5040828;28;20411;-83
2021/12/03 07:49:49;;;;;;;;;;;3.40;99.90;;;;;;5039992;28;20015;-82
2021/12/03 07:52:16;;;;;;;;;;;3.40;99.90;;;;;;5039647;28;19956;-83
2021/12/03 07:54:41;;;;;;;;;;;3.40;37.30;;;;;;5037603;28;19919;-83
2021/12/03 07:57:07;;;;;;;;;;;3.40;13.20;;;;;;5036878;28;20416;-83
2021/12/03 07:59:32;;;;;;;;;;;3.40;1.00;;;;;;5040149;28;20003;-83
2021/12/03 08:01:58;;;;;;;;;;;3.50;1.00;;;;;;5026535;28;19976;-83
2021/12/03 08:04:23;;;;;;;;;;;3.50;1.00;;;;;;5024485;28;19916;-83
2021/12/03 08:06:52;;;;;;;;;;;3.50;1.00;;;;;;5034364;28;19929;-83
2021/12/03 08:09:18;;;;;;;;;;;3.60;1.00;;;;;;5032641;28;19917;-82
2021/12/03 08:11:43;;;;;;;;;;;3.60;1.00;;;;;;5033751;28;20353;-82
2021/12/03 08:14:09;;;;;;;;;;;3.60;1.00;;;;;;5037183;28;19920;-82
2021/12/03 08:16:34;;;;;;;;;;;3.70;1.00;;;;;;5039780;28;20425;-83
2021/12/03 08:18:59;;;;;;;;;;;3.70;1.00;;;;;;5037170;28;19973;-82
2021/12/03 08:21:25;;;;;;;;;;;3.70;1.00;;;;;;5041535;28;19949;-83
2021/12/03 08:23:50;;;;;;;;;;;3.70;1.00;;;;;;5045918;28;19917;-82
2021/12/03 08:26:16;;;;;;;;;;;3.80;1.00;;;;;;5044387;28;19933;-83
2021/12/03 08:28:42;;;;;;;;;;;3.80;1.00;;;;;;5022374;28;19917;-83
2021/12/03 08:31:11;;;;;;;;;;;3.80;99.90;;;;;;5045006;28;19919;-83
2021/12/03 08:33:37;;;;;;;;;;;3.80;99.90;;;;;;5044165;28;20413;-83
2021/12/03 08:36:03;;;;;;;;;;;3.90;99.90;;;;;;5043478;28;20262;-83
2021/12/03 08:38:28;;;;;;;;;;;4.00;99.90;;;;;;5028575;28;19916;-83
2021/12/03 08:40:54;;;;;;;;;;;4.00;99.90;;;;;;5042346;28;19920;-83
2021/12/03 08:43:19;;;;;;;;;;;4.00;99.90;;;;;;5022251;28;19940;-83
2021/12/03 08:45:47;;;;;;;;;;;4.10;99.90;;;;;;5036751;28;19935;-85
2021/12/03 08:48:12;;;;;;;;;;;4.20;99.90;;;;;;5036265;28;19932;-82
2021/12/03 08:50:49;;;;;;;;;;;4.30;68.50;;;;;;5020589;28;19997;-82
2021/12/03 08:54:48;;;;;;;;;;;4.40;1.00;;;;;;5030696;28;19992;-83
2021/12/03 08:56:05;;;;;;;;;;;4.50;1.00;;;;;;5041446;28;19936;-82
2021/12/03 08:58:31;;;;;;;;;;;4.60;99.90;;;;;;5040800;28;19921;-84
2021/12/03 09:00:56;;;;;;;;;;;4.70;63.90;;;;;;5034998;28;19913;-82
2021/12/03 09:03:22;;;;;;;;;;;4.70;1.00;;;;;;5039601;28;19996;-82
2021/12/03 09:05:48;;;;;;;;;;;4.70;1.00;;;;;;5038133;28;19921;-81
2021/12/03 09:08:13;;;;;;;;;;;4.70;1.00;;;;;;5035621;28;19913;-82
2021/12/03 09:10:42;;;;;;;;;;;4.70;1.00;;;;;;5017536;28;19936;-83
2021/12/03 09:13:07;;;;;;;;;;;4.70;99.90;;;;;;5041230;28;20413;-82
2021/12/03 09:15:39;;;;;;;;;;;4.60;99.90;;;;;;5039880;28;19935;-83
2021/12/03 09:20:54;;;;;;;;;;;4.60;99.90;;;;;;5036884;28;19924;-82
2021/12/03 09:26:15;;;;;;;;;;;4.60;94.40;;;;;;5035053;28;19920;-83
2021/12/03 09:28:43;;;;;;;;;;;4.60;40.10;;;;;;5037748;28;19913;-83
2021/12/03 09:31:12;;;;;;;;;;;4.70;1.00;;;;;;5041238;28;19936;-83
2021/12/03 09:33:40;;;;;;;;;;;4.70;1.00;;;;;;5036101;28;19917;-83
2021/12/03 09:36:07;;;;;;;;;;;4.70;99.90;;;;;;5016784;28;19920;-83
2021/12/03 09:38:34;;;;;;;;;;;4.70;99.90;;;;;;5037532;28;19913;-83
2021/12/03 09:41:07;;;;;;;;;;;4.70;99.90;;;;;;5038060;28;19913;-83
2021/12/03 09:43:34;;;;;;;;;;;4.70;99.90;;;;;;5039222;28;19909;-82
2021/12/03 09:46:10;;;;;;;;;;;4.70;99.90;;;;;;5031877;28;19909;-82
2021/12/03 09:51:25;;;;;;;;;;;4.80;1.00;;;;;;5000562;28;19941;-84
2021/12/03 09:56:19;;;;;;;;;;;5.00;1.00;;;;;;5041263;28;19963;-83
2021/12/03 10:01:52;;;;;;;;;;;5.00;99.90;;;;;;5013953;28;19928;-83
2021/12/03 10:10:24;;;;;;;;;;;5.00;99.90;;;;;;5040683;28;19939;-82
2021/12/03 10:13:08;;;;;;;;;;;5.10;99.90;;;;;;5032009;28;19913;-82
2021/12/03 10:15:40;;;;;;;;;;;5.10;99.90;;;;;;5025808;28;19980;-83
2021/12/03 10:18:22;;;;;;;;;;;5.20;20.90;;;;;;5037501;28;19905;-82
2021/12/03 10:20:59;;;;;;;;;;;5.30;31.50;;;;;;5043147;28;19956;-82
2021/12/03 10:26:39;;;;;;;;;;;5.40;1.00;;;;;;5045088;28;19916;-83
2021/12/03 11:20:10;;;;;;;;;;;6.50;1.00;;;;;;5040156;28;19913;-84
2021/12/03 11:28:43;;;;;;;;;;;6.40;1.00;;;;;;5033080;28;19917;-84
2021/12/03 11:31:12;;;;;;;;;;;6.40;1.00;;;;;;5039275;28;19913;-85
2021/12/03 11:53:15;;;;;;;;;;;6.40;1.00;;;;;;5041260;28;19918;-85
2021/12/03 12:26:50;;;;;;;;;;;6.70;1.00;;;;;;5035767;28;19920;-85
2021/12/03 12:44:03;;;;;;;;;;;7.20;99.90;;;;;;5038023;28;19975;-85
2021/12/03 13:20:48;;;;;;;;;;;7.00;99.90;;;;;;5034515;28;19916;-86
2021/12/03 13:59:40;;;;;;;;;;;6.50;99.90;;;;;;4965195;28;19914;-86
2021/12/03 14:07:35;;;;;;;;;;;6.40;99.90;;;;;;5034277;28;19956;-86
2021/12/03 14:36:52;;;;;;;;;;;5.80;99.90;;;;;;5032789;28;19920;-87
2021/12/03 14:39:29;;;;;;;;;;;5.70;99.90;;;;;;5014515;28;19952;-86
2021/12/03 14:44:38;;;;;;;;;;;5.70;99.90;;;;;;5031579;28;19920;-87
2021/12/03 14:52:43;;;;;;;;;;;5.60;99.90;;;;;;5026385;28;19922;-85
2021/12/03 14:55:09;;;;;;;;;;;5.60;99.90;;;;;;5016884;28;19909;-85
2021/12/03 15:03:48;;;;;;;;;;;5.50;49.00;;;;;;5032550;28;19917;-86
2021/12/03 15:08:38;;;;;;;;;;;5.40;94.80;;;;;;5027292;28;19920;-86
2021/12/03 15:19:56;;;;;;;;;;;5.30;99.90;;;;;;5033325;28;19979;-85
2021/12/03 15:22:29;;;;;;;;;;;5.30;99.90;;;;;;5024022;28;19967;-86
2021/12/03 15:25:00;;;;;;;;;;;5.30;99.90;;;;;;5005496;28;19918;-85
2021/12/03 15:32:47;;;;;;;;;;;5.20;99.90;;;;;;5033278;28;19920;-86
2021/12/03 15:35:18;;;;;;;;;;;5.20;99.90;;;;;;5035989;28;19922;-86
2021/12/03 16:04:43;;;;;;;;;;;5.10;99.90;;;;;;5014490;28;20015;-87
2021/12/03 16:07:23;;;;;;;;;;;5.10;99.90;;;;;;5029397;28;19909;-86
2021/12/03 16:12:54;;;;;;;;;;;5.10;99.90;;;;;;5034162;28;19915;-86
2021/12/03 16:21:19;;;;;;;;;;;5.10;99.90;;;;;;4963446;28;19934;-86
2021/12/03 16:48:39;;;;;;;;;;;5.20;99.90;;;;;;5037720;28;19913;-87
2021/12/03 16:51:06;;;;;;;;;;;5.20;99.90;;;;;;5032864;28;19963;-87
2021/12/03 16:53:32;;;;;;;;;;;5.20;99.90;;;;;;5036587;28;19980;-86
2021/12/03 16:56:09;;;;;;;;;;;5.20;99.90;;;;;;5037418;28;20000;-87
2021/12/03 16:58:35;;;;;;;;;;;5.20;99.90;;;;;;5036167;28;20266;-87
2021/12/03 17:03:52;;;;;;;;;;;5.20;99.90;;;;;;5036936;28;19917;-87
2021/12/03 17:09:07;;;;;;;;;;;5.20;99.90;;;;;;5038971;28;19948;-87
2021/12/03 17:11:47;;;;;;;;;;;5.30;99.90;;;;;;5035290;28;20328;-87
2021/12/03 17:14:25;;;;;;;;;;;5.30;99.90;;;;;;5034046;28;19931;-87
2021/12/03 17:20:03;;;;;;;;;;;5.30;99.90;;;;;;5041543;28;19913;-87
2021/12/03 17:52:20;;;;;;;;;;;5.10;1.00;;;;;;5036373;28;19957;-87
2021/12/03 17:55:08;;;;;;;;;;;5.10;99.90;;;;;;5034807;28;19949;-86
2021/12/03 17:57:45;;;;;;;;;;;5.00;99.90;;;;;;5019462;28;19920;-87
2021/12/03 18:00:15;;;;;;;;;;;5.00;99.90;;;;;;5032667;28;20297;-87
2021/12/03 18:02:46;;;;;;;;;;;5.00;99.90;;;;;;5031722;28;19924;-87
2021/12/03 18:08:09;;;;;;;;;;;5.00;50.60;;;;;;5033595;28;19913;-87
2021/12/03 18:13:43;;;;;;;;;;;5.00;1.00;;;;;;5033579;28;19917;-87
2021/12/03 18:16:27;;;;;;;;;;;5.00;99.90;;;;;;5028008;28;20047;-87
2021/12/03 18:51:19;;;;;;;;;;;5.30;99.90;;;;;;5010772;28;20348;-86
2021/12/03 18:53:55;;;;;;;;;;;5.30;99.90;;;;;;5029787;28;19992;-87
2021/12/03 18:57:07;;;;;;;;;;;5.30;99.90;;;;;;5035210;28;20388;-88
2021/12/03 18:59:10;;;;;;;;;;;5.30;99.90;;;;;;5019270;28;19952;-86
2021/12/03 19:01:35;;;;;;;;;;;5.30;1.00;;;;;;5037618;28;19909;-87
2021/12/03 19:06:47;;;;;;;;;;;5.30;1.00;;;;;;5028292;28;19920;-87
2021/12/03 19:09:18;;;;;;;;;;;5.30;1.00;;;;;;5015663;28;19979;-88
2021/12/03 19:14:09;;;;;;;;;;;5.40;99.90;;;;;;5034223;28;19943;-86
2021/12/03 19:16:35;;;;;;;;;;;5.40;99.90;;;;;;5021695;28;20439;-87
2021/12/03 19:19:03;;;;;;;;;;;5.40;99.90;;;;;;5029905;28;20012;-87
2021/12/03 19:21:33;;;;;;;;;;;5.40;99.90;;;;;;5034725;28;19920;-86
2021/12/03 19:24:00;;;;;;;;;;;5.40;99.90;;;;;;5030628;28;19956;-86
2021/12/03 19:26:31;;;;;;;;;;;5.40;99.90;;;;;;5035262;28;19936;-86
2021/12/03 19:28:58;;;;;;;;;;;5.30;99.90;;;;;;5016539;28;19924;-86
2021/12/03 19:31:24;;;;;;;;;;;5.40;99.90;;;;;;5016100;28;20266;-86
2021/12/03 19:33:50;;;;;;;;;;;5.40;99.90;;;;;;5034910;28;19917;-86
2021/12/03 19:36:21;;;;;;;;;;;5.40;97.30;;;;;;5036992;28;19913;-86
2021/12/03 19:38:47;;;;;;;;;;;5.40;45.90;;;;;;5016806;28;19924;-86
2021/12/03 19:41:17;;;;;;;;;;;5.40;78.40;;;;;;5030872;28;19921;-87
2021/12/03 19:43:50;;;;;;;;;;;5.40;84.00;;;;;;5032958;28;19920;-87
2021/12/03 19:46:20;;;;;;;;;;;5.40;99.50;;;;;;5031509;28;20187;-86
2021/12/03 19:48:56;;;;;;;;;;;5.40;85.40;;;;;;5033485;28;19921;-86
2021/12/03 19:51:23;;;;;;;;;;;5.40;99.90;;;;;;5034517;28;19921;-87
2021/12/03 19:53:56;;;;;;;;;;;5.40;99.90;;;;;;5033334;28;20285;-86
2021/12/03 19:56:25;;;;;;;;;;;5.40;89.20;;;;;;5033296;28;20285;-86
2021/12/03 19:58:52;;;;;;;;;;;5.40;61.10;;;;;;5031144;28;19913;-86
2021/12/03 20:01:18;;;;;;;;;;;5.40;94.80;;;;;;5026669;28;19928;-86
2021/12/03 20:03:43;;;;;;;;;;;5.40;99.90;;;;;;5013691;28;19917;-87
2021/12/03 20:06:09;;;;;;;;;;;5.40;99.90;;;;;;5033545;28;19917;-86
2021/12/03 20:08:35;;;;;;;;;;;5.30;99.90;;;;;;5036671;28;19913;-86
2021/12/03 20:11:06;;;;;;;;;;;5.40;99.90;;;;;;5035887;28;19940;-86
2021/12/03 20:13:31;;;;;;;;;;;5.40;99.90;;;;;;5039828;28;20300;-86
2021/12/03 20:18:54;;;;;;;;;;;5.40;99.90;;;;;;5034449;28;19956;-86
2021/12/03 20:21:18;;;;;;;;;;;5.40;99.90;;;;;;5037238;28;19958;-86
2021/12/03 20:24:01;;;;;;;;;;;5.40;99.90;;;;;;5019067;28;19917;-86
2021/12/03 20:29:33;;;;;;;;;;;5.40;99.90;;;;;;5031759;28;19913;-86
2021/12/03 20:32:12;;;;;;;;;;;5.40;99.90;;;;;;5024312;28;19959;-86
2021/12/03 20:37:29;;;;;;;;;;;5.30;99.90;;;;;;5032661;28;20009;-85
2021/12/03 20:39:57;;;;;;;;;;;5.30;99.90;;;;;;5020803;28;19943;-86
2021/12/03 20:42:30;;;;;;;;;;;5.40;99.90;;;;;;5035897;28;20339;-87
2021/12/03 21:08:49;;;;;;;;;;;5.30;1.00;;;;;;5035435;28;19932;-87
2021/12/03 21:11:35;;;;;;;;;;;5.30;1.00;;;;;;5017832;28;19937;-87
2021/12/03 21:14:03;;;;;;;;;;;5.30;99.90;;;;;;5036092;28;19921;-88
2021/12/03 21:21:56;;;;;;;;;;;5.30;99.90;;;;;;5036764;28;19920;-87
2021/12/03 21:24:21;;;;;;;;;;;5.30;99.90;;;;;;5014611;28;20316;-87
2021/12/03 21:26:48;;;;;;;;;;;5.30;99.90;;;;;;5035322;28;19959;-88
2021/12/03 21:29:34;;;;;;;;;;;5.40;99.90;;;;;;5036837;28;19936;-87
2021/12/03 21:32:15;;;;;;;;;;;5.40;99.90;;;;;;5034733;28;20011;-87
2021/12/03 21:40:16;;;;;;;;;;;5.40;99.90;;;;;;5038539;28;19923;-87
2021/12/03 21:42:42;;;;;;;;;;;5.40;99.90;;;;;;5017481;28;19920;-87
2021/12/03 21:45:07;;;;;;;;;;;5.40;99.90;;;;;;5034551;28;19920;-87
2021/12/03 21:47:33;;;;;;;;;;;5.40;99.90;;;;;;5035981;28;20381;-88
2021/12/03 21:49:58;;;;;;;;;;;5.40;99.90;;;;;;5019003;28;19916;-88
2021/12/03 21:52:25;;;;;;;;;;;5.40;99.90;;;;;;5014114;28;19971;-87
2021/12/03 21:54:52;;;;;;;;;;;5.40;99.90;;;;;;5034177;28;19920;-88
2021/12/03 21:57:18;;;;;;;;;;;5.40;99.90;;;;;;5036314;28;20448;-87
2021/12/03 21:59:43;;;;;;;;;;;5.40;1.00;;;;;;5015483;28;19914;-87
2021/12/03 22:02:10;;;;;;;;;;;5.40;1.00;;;;;;5017567;28;20026;-87
2021/12/03 22:04:36;;;;;;;;;;;5.40;1.00;;;;;;5017238;28;19917;-86
2021/12/03 22:07:06;;;;;;;;;;;5.40;99.90;;;;;;5034659;28;20012;-87
2021/12/03 22:09:31;;;;;;;;;;;5.40;1.00;;;;;;5014335;28;20456;-87
2021/12/03 22:11:57;;;;;;;;;;;5.40;1.00;;;;;;5034292;28;19944;-87
2021/12/03 22:14:22;;;;;;;;;;;5.40;99.90;;;;;;5034255;28;19913;-87
2021/12/03 22:16:48;;;;;;;;;;;5.40;99.90;;;;;;5034116;28;19913;-87
2021/12/03 22:19:14;;;;;;;;;;;5.40;99.90;;;;;;5017272;28;20300;-87
2021/12/03 22:21:39;;;;;;;;;;;5.40;99.90;;;;;;5034722;28;19913;-87
2021/12/03 22:24:05;;;;;;;;;;;5.40;99.90;;;;;;5033705;28;19994;-88
2021/12/03 22:26:30;;;;;;;;;;;5.40;1.00;;;;;;5030666;28;19958;-88